This is the latest recevied weather packets stored in our database for station/object DL1EEM-L4. If no packets are shown the sender has not sent any weather packets the latest 10 day(s).
| Time | Temp. | Humidity | Pressure | Rain* | Wind** | Luminosity | Snow |
|---|---|---|---|---|---|---|---|
| 1787404234 | 68° F | 48% | 761.1 mmHg | - | - | - | - |
| 1787403334 | 68° F | 46% | 760.9 mmHg | - | - | - | - |
| 1787402434 | 67° F | 49% | 760.9 mmHg | - | - | - | - |
| 1787401536 | 68° F | 51% | 760.9 mmHg | - | - | - | - |
| 1787400636 | 66° F | 56% | 761.1 mmHg | - | - | - | - |
| 1787399736 | 68° F | 56% | 760.8 mmHg | - | - | - | - |
| 1787398836 | 66° F | 58% | 760.7 mmHg | - | - | - | - |
| 1787397935 | 64° F | 63% | 760.7 mmHg | - | - | - | - |
| 1787397035 | 64° F | 63% | 760.7 mmHg | - | - | - | - |
| 1787396135 | 63° F | 66% | 760.5 mmHg | - | - | - | - |
| 1787395235 | 64° F | 70% | 760.4 mmHg | - | - | - | - |
| 1787394335 | 61° F | 75% | 760.4 mmHg | - | - | - | - |
| 1787393435 | 60° F | 82% | 760.3 mmHg | - | - | - | - |
| 1787392535 | 58° F | 86% | 760.3 mmHg | - | - | - | - |
| 1787391635 | 58° F | 92% | 760.3 mmHg | - | - | - | - |
| 1787390735 | 57° F | 89% | 760.3 mmHg | - | - | - | - |
| 1787389835 | 61° F | 79% | 759.9 mmHg | - | - | - | - |
| 1787388935 | 59° F | 86% | 759.9 mmHg | - | - | - | - |
| 1787388035 | 63° F | 69% | 759.7 mmHg | - | - | - | - |
| 1787387135 | 62° F | 69% | 759.7 mmHg | - | - | - | - |
| 1787386234 | 63° F | 70% | 759.6 mmHg | - | - | - | - |
| 1787385334 | 62° F | 72% | 759.5 mmHg | - | - | - | - |
| 1787384434 | 61° F | 74% | 759.4 mmHg | - | - | - | - |
| 1787383534 | 59° F | 79% | 759.4 mmHg | - | - | - | - |
| 1787382634 | 58° F | 81% | 759.4 mmHg | - | - | - | - |
* Rain since midnight (hover to see other rain measurements)
** Current wind speed in m/s (hover to see current wind gust speed)